createdAt,value
2022-11-23T00:00:36.981Z,100378.03
2022-11-23T00:01:40.332Z,100389.75
2022-11-23T00:02:42.592Z,100392.84
2022-11-23T00:03:46.175Z,100388.16
2022-11-23T00:04:49.500Z,100399.44
2022-11-23T00:05:51.883Z,100395.88
2022-11-23T00:06:55.317Z,100392.47
2022-11-23T00:07:58.038Z,100390.56
2022-11-23T00:09:01.491Z,100375.06
2022-11-23T00:10:05.777Z,100381.59
2022-11-23T00:11:09.308Z,100380.00
2022-11-23T00:12:11.983Z,100376.34
2022-11-23T00:13:15.433Z,100375.78
2022-11-23T00:14:17.862Z,100372.63
2022-11-23T00:15:21.387Z,100365.81
2022-11-23T00:16:25.128Z,100363.16
2022-11-23T00:17:28.552Z,100356.63
2022-11-23T00:18:30.972Z,100365.25
2022-11-23T00:19:34.637Z,100373.38
2022-11-23T00:20:39.974Z,100376.78
2022-11-23T00:21:43.741Z,100374.16
2022-11-23T00:22:46.252Z,100368.69
2022-11-23T00:23:50.831Z,100375.50
2022-11-23T00:24:53.388Z,100370.03
2022-11-23T00:25:58.473Z,100373.13
2022-11-23T00:27:01.816Z,100370.22
2022-11-23T00:28:04.568Z,100374.63
2022-11-23T00:29:08.300Z,100369.91
2022-11-23T00:30:11.992Z,100376.72
2022-11-23T00:31:17.846Z,100381.13
2022-11-23T00:32:20.158Z,100370.66
2022-11-23T00:33:23.963Z,100369.63
2022-11-23T00:34:26.556Z,100373.56
2022-11-23T00:35:30.058Z,100367.53
2022-11-23T00:36:33.641Z,100369.13
2022-11-23T00:37:36.297Z,100371.78
2022-11-23T00:38:40.022Z,100378.59
2022-11-23T00:39:42.433Z,100373.03
2022-11-23T00:40:46.281Z,100376.22
2022-11-23T00:41:50.696Z,100369.16
2022-11-23T00:42:54.278Z,100371.34
2022-11-23T00:43:57.924Z,100373.22
2022-11-23T00:45:00.685Z,100368.13
2022-11-23T00:46:09.536Z,100358.63
2022-11-23T00:47:12.020Z,100354.63
2022-11-23T00:48:15.425Z,100359.44
2022-11-23T00:49:18.891Z,100364.34
2022-11-23T00:50:21.203Z,100357.97
2022-11-23T00:51:27.261Z,100363.97
2022-11-23T00:52:29.653Z,100353.69
2022-11-23T00:53:33.052Z,100354.88
2022-11-23T00:54:35.418Z,100353.88
2022-11-23T00:55:38.771Z,100358.81
2022-11-23T00:56:42.337Z,100364.22
2022-11-23T00:57:46.193Z,100360.84
2022-11-23T00:58:50.587Z,100368.50
2022-11-23T00:59:52.904Z,100363.69
2022-11-23T01:01:08.748Z,100372.78
2022-11-23T01:02:11.096Z,100370.94
2022-11-23T01:03:14.740Z,100370.41
2022-11-23T01:04:17.252Z,100372.94
2022-11-23T01:05:20.708Z,100367.06
2022-11-23T01:06:25.438Z,100356.56
2022-11-23T01:07:30.832Z,100350.59
2022-11-23T01:08:33.658Z,100346.19
2022-11-23T01:09:36.956Z,100342.66
2022-11-23T01:10:39.259Z,100346.59
2022-11-23T01:11:42.629Z,100334.06
2022-11-23T01:12:46.347Z,100333.06
2022-11-23T01:13:50.103Z,100334.84
2022-11-23T01:14:54.349Z,100333.97
2022-11-23T01:15:57.938Z,100325.34
2022-11-23T01:17:00.248Z,100343.47
2022-11-23T01:18:03.811Z,100342.97
2022-11-23T01:19:08.418Z,100356.09
2022-11-23T01:20:12.427Z,100358.19
2022-11-23T01:21:14.686Z,100360.94
2022-11-23T01:22:18.316Z,100359.28
2022-11-23T01:23:20.621Z,100363.09
2022-11-23T01:24:24.813Z,100375.00
2022-11-23T01:25:27.400Z,100373.13
2022-11-23T01:26:30.624Z,100370.75
2022-11-23T01:27:32.960Z,100358.56
2022-11-23T01:28:38.956Z,100353.41
2022-11-23T01:29:41.228Z,100347.16
2022-11-23T01:30:44.533Z,100338.78
2022-11-23T01:31:47.160Z,100340.94
2022-11-23T01:32:50.669Z,100338.06
2022-11-23T01:33:54.101Z,100352.38
2022-11-23T01:34:57.515Z,100356.78
2022-11-23T01:35:59.949Z,100354.72
2022-11-23T01:37:03.368Z,100345.59
2022-11-23T01:38:05.659Z,100337.78
2022-11-23T01:39:09.906Z,100335.94
2022-11-23T01:40:13.064Z,100331.38
2022-11-23T01:41:19.240Z,100332.72
2022-11-23T01:42:21.576Z,100339.84
2022-11-23T01:43:24.947Z,100343.00
2022-11-23T01:44:31.981Z,100352.91
2022-11-23T01:45:42.271Z,100357.13
2022-11-23T01:46:45.009Z,100362.53
2022-11-23T01:47:48.640Z,100356.34
2022-11-23T01:48:56.575Z,100353.56
2022-11-23T01:50:00.332Z,100348.56
2022-11-23T01:51:06.052Z,100341.22
2022-11-23T01:52:12.957Z,100344.56
2022-11-23T01:53:16.166Z,100343.81
2022-11-23T01:54:26.364Z,100350.53
2022-11-23T01:55:29.198Z,100336.13
2022-11-23T01:56:37.358Z,100340.25
2022-11-23T01:57:43.515Z,100322.59
2022-11-23T01:58:52.480Z,100312.78
2022-11-23T01:59:57.432Z,100310.78
2022-11-23T02:01:01.242Z,100297.22
2022-11-23T02:02:04.246Z,100304.84
2022-11-23T02:03:09.782Z,100299.16
2022-11-23T02:04:16.559Z,100310.38
2022-11-23T02:05:22.879Z,100309.75
2022-11-23T02:06:25.195Z,100316.88
2022-11-23T02:07:30.500Z,100313.94
2022-11-23T02:08:32.838Z,100308.50
2022-11-23T02:09:37.577Z,100306.81
2022-11-23T02:10:39.984Z,100306.53
2022-11-23T02:11:43.514Z,100297.53
2022-11-23T02:12:45.948Z,100305.41
2022-11-23T02:13:51.563Z,100304.66
2022-11-23T02:14:55.963Z,100306.56
2022-11-23T02:16:00.291Z,100308.06
2022-11-23T02:17:02.663Z,100317.53
2022-11-23T02:18:12.684Z,100319.38
2022-11-23T02:19:25.057Z,100326.94
2022-11-23T02:20:28.659Z,100324.66
2022-11-23T02:21:31.411Z,100322.13
2022-11-23T02:22:42.306Z,100327.41
2022-11-23T02:23:53.999Z,100325.25
2022-11-23T02:24:56.841Z,100324.38
2022-11-23T02:26:05.584Z,100319.16
2022-11-23T02:27:08.335Z,100324.94
2022-11-23T02:28:13.314Z,100323.16
2022-11-23T02:29:21.330Z,100323.22
2022-11-23T02:30:25.327Z,100327.13
2022-11-23T02:32:48.594Z,100338.91
2022-11-23T02:33:51.116Z,100333.44
2022-11-23T02:34:54.493Z,100333.97
2022-11-23T02:35:59.457Z,100334.22
2022-11-23T02:37:02.955Z,100332.34
2022-11-23T02:38:07.050Z,100329.00
2022-11-23T02:39:14.173Z,100343.13
2022-11-23T02:40:25.652Z,100343.91
2022-11-23T02:41:37.094Z,100338.91
2022-11-23T02:44:00.887Z,100348.09
2022-11-23T02:45:14.725Z,100346.28
2022-11-23T02:46:18.688Z,100358.56
2022-11-23T02:47:21.328Z,100357.72
2022-11-23T02:48:25.089Z,100352.56
2022-11-23T02:49:27.513Z,100355.16
2022-11-23T02:50:31.219Z,100348.34
2022-11-23T02:51:33.865Z,100347.03
2022-11-23T02:52:37.244Z,100347.59
2022-11-23T02:53:39.832Z,100351.25
2022-11-23T02:54:43.821Z,100354.91
2022-11-23T02:55:46.230Z,100347.03
2022-11-23T02:56:51.035Z,100343.41
2022-11-23T02:57:53.417Z,100341.06
2022-11-23T02:58:56.722Z,100346.06
2022-11-23T02:59:59.018Z,100344.19
2022-11-23T03:01:02.315Z,100338.44
2022-11-23T03:02:05.604Z,100329.53
2022-11-23T03:03:08.837Z,100325.88
2022-11-23T03:04:11.283Z,100324.06
2022-11-23T03:05:14.725Z,100312.00
2022-11-23T03:06:17.723Z,100314.88
2022-11-23T03:07:21.252Z,100299.19
2022-11-23T03:08:23.702Z,100306.44
2022-11-23T03:09:27.244Z,100307.97
2022-11-23T03:10:29.735Z,100311.38
2022-11-23T03:11:33.501Z,100304.63
2022-11-23T03:12:37.310Z,100301.75
2022-11-23T03:13:40.889Z,100303.03
2022-11-23T03:14:43.544Z,100308.53
2022-11-23T03:15:46.994Z,100307.00
2022-11-23T03:16:49.446Z,100306.72
2022-11-23T03:17:53.354Z,100292.84
2022-11-23T03:18:55.861Z,100288.13
2022-11-23T03:19:59.185Z,100285.03
2022-11-23T03:21:03.469Z,100302.31
2022-11-23T03:22:06.950Z,100304.41
2022-11-23T03:23:09.219Z,100293.97
2022-11-23T03:24:12.539Z,100289.47
2022-11-23T03:25:14.978Z,100278.50
2022-11-23T03:26:18.525Z,100287.13
2022-11-23T03:27:20.857Z,100288.69
2022-11-23T03:28:25.932Z,100279.47
2022-11-23T03:29:28.496Z,100277.41
2022-11-23T03:30:32.758Z,100269.31
2022-11-23T03:31:35.468Z,100269.81
2022-11-23T03:32:39.068Z,100268.22
2022-11-23T03:33:41.594Z,100252.81
2022-11-23T03:34:45.054Z,100246.25
2022-11-23T03:35:47.884Z,100240.78
2022-11-23T03:36:51.333Z,100247.34
2022-11-23T03:37:53.793Z,100234.53
2022-11-23T03:38:57.263Z,100236.34
2022-11-23T03:39:59.591Z,100228.50
2022-11-23T03:41:02.885Z,100236.09
2022-11-23T03:42:05.593Z,100240.25
2022-11-23T03:43:09.005Z,100245.75
2022-11-23T03:44:12.878Z,100229.81
2022-11-23T03:45:16.180Z,100240.56
2022-11-23T03:46:18.512Z,100235.66
2022-11-23T03:47:21.940Z,100243.50
2022-11-23T03:48:24.572Z,100243.50
2022-11-23T03:49:27.912Z,100249.72
2022-11-23T03:50:30.239Z,100251.00
2022-11-23T03:51:33.947Z,100243.41
2022-11-23T03:52:40.081Z,100240.03
2022-11-23T03:53:44.084Z,100243.97
2022-11-23T03:54:47.191Z,100251.63
2022-11-23T03:55:50.484Z,100236.94
2022-11-23T03:56:52.832Z,100230.66
2022-11-23T03:57:59.744Z,100221.75
2022-11-23T03:59:02.122Z,100223.88
2022-11-23T04:00:08.751Z,100221.53
2022-11-23T04:01:11.444Z,100211.06
2022-11-23T04:02:14.901Z,100201.63
2022-11-23T04:03:17.724Z,100201.91
2022-11-23T04:04:21.478Z,100196.16
2022-11-23T04:05:24.654Z,100199.31
2022-11-23T04:06:27.997Z,100199.56
2022-11-23T04:07:30.476Z,100199.81
2022-11-23T04:08:34.045Z,100192.22
2022-11-23T04:09:36.348Z,100197.47
2022-11-23T04:10:40.042Z,100192.78
2022-11-23T04:11:42.361Z,100191.97
2022-11-23T04:12:45.998Z,100197.47
2022-11-23T04:13:48.632Z,100204.28
2022-11-23T04:14:52.011Z,100205.88
2022-11-23T04:15:55.787Z,100210.84
2022-11-23T04:16:59.390Z,100215.56
2022-11-23T04:18:01.894Z,100209.81
2022-11-23T04:19:05.425Z,100216.41
2022-11-23T04:20:08.711Z,100215.66
2022-11-23T04:21:12.216Z,100212.47
2022-11-23T04:22:14.482Z,100218.00
2022-11-23T04:23:17.906Z,100215.66
2022-11-23T04:24:20.375Z,100214.88
2022-11-23T04:25:24.227Z,100207.78
2022-11-23T04:26:26.593Z,100198.69
2022-11-23T04:27:30.011Z,100195.53
2022-11-23T04:28:32.468Z,100191.06
2022-11-23T04:29:36.062Z,100196.09
2022-11-23T04:30:38.603Z,100188.25
2022-11-23T04:31:43.314Z,100186.38
2022-11-23T04:32:46.499Z,100194.69
2022-11-23T04:33:49.808Z,100196.84
2022-11-23T04:34:52.078Z,100188.97
2022-11-23T04:35:55.507Z,100193.44
2022-11-23T04:36:58.935Z,100189.22
2022-11-23T04:38:01.925Z,100180.06
2022-11-23T04:39:06.401Z,100183.72
2022-11-23T04:40:11.058Z,100179.25
2022-11-23T04:41:13.367Z,100173.72
2022-11-23T04:42:16.982Z,100171.59
2022-11-23T04:44:33.989Z,100164.00
2022-11-23T04:45:38.946Z,100165.31
2022-11-23T04:46:42.229Z,100176.28
2022-11-23T04:47:44.503Z,100170.22
2022-11-23T04:48:47.940Z,100184.63
2022-11-23T04:49:50.338Z,100184.88
2022-11-23T04:50:55.829Z,100185.66
2022-11-23T04:51:58.327Z,100175.97
2022-11-23T04:53:01.674Z,100176.78
2022-11-23T04:54:04.410Z,100188.78
2022-11-23T04:55:08.573Z,100175.75
2022-11-23T04:56:10.852Z,100190.38
2022-11-23T04:57:14.173Z,100186.47
2022-11-23T04:58:17.597Z,100185.97
2022-11-23T04:59:20.210Z,100188.34
2022-11-23T05:00:25.118Z,100185.22
2022-11-23T05:01:27.544Z,100182.59
2022-11-23T05:02:30.922Z,100190.72
2022-11-23T05:03:35.192Z,100188.63
2022-11-23T05:04:38.554Z,100194.13
2022-11-23T05:05:41.305Z,100194.91
2022-11-23T05:06:44.631Z,100188.38
2022-11-23T05:07:47.080Z,100198.06
2022-11-23T05:08:50.564Z,100196.22
2022-11-23T05:09:53.099Z,100198.53
2022-11-23T05:10:56.631Z,100206.38
2022-11-23T05:11:59.455Z,100189.13
2022-11-23T05:13:02.839Z,100185.97
2022-11-23T05:14:05.499Z,100190.69
2022-11-23T05:15:09.662Z,100178.66
2022-11-23T05:16:13.413Z,100192.28
2022-11-23T05:17:16.756Z,100196.97
2022-11-23T05:18:19.209Z,100200.91
2022-11-23T05:19:22.702Z,100202.72
2022-11-23T05:20:25.089Z,100197.78
2022-11-23T05:21:28.746Z,100192.06
2022-11-23T05:22:31.055Z,100196.78
2022-11-23T05:23:34.446Z,100189.47
2022-11-23T05:24:36.774Z,100178.22
2022-11-23T05:25:40.830Z,100182.38
2022-11-23T05:26:43.226Z,100186.84
2022-11-23T05:27:46.617Z,100184.50
2022-11-23T05:28:49.541Z,100180.84
2022-11-23T05:29:53.327Z,100175.88
2022-11-23T05:30:55.644Z,100166.97
2022-11-23T05:32:00.650Z,100159.59
2022-11-23T05:33:04.210Z,100166.44
2022-11-23T05:34:07.657Z,100160.16
2022-11-23T05:35:10.555Z,100159.38
2022-11-23T05:36:14.481Z,100151.53
2022-11-23T05:37:17.187Z,100157.56
2022-11-23T05:38:20.533Z,100163.31
2022-11-23T05:39:23.555Z,100157.03
2022-11-23T05:40:26.896Z,100163.59
2022-11-23T05:41:29.444Z,100171.75
2022-11-23T05:42:33.302Z,100164.16
2022-11-23T05:43:35.897Z,100153.13
2022-11-23T05:44:39.644Z,100155.78
2022-11-23T05:45:42.072Z,100155.25
2022-11-23T05:46:45.451Z,100161.03
2022-11-23T05:47:53.338Z,100162.06
2022-11-23T05:48:56.990Z,100159.72
2022-11-23T05:49:59.465Z,100156.31
2022-11-23T05:51:05.512Z,100154.19
2022-11-23T05:52:08.527Z,100153.69
2022-11-23T05:53:12.073Z,100147.13
2022-11-23T05:54:14.639Z,100143.72
2022-11-23T05:55:18.883Z,100142.41
2022-11-23T05:56:21.197Z,100135.38
2022-11-23T05:57:24.799Z,100137.44
2022-11-23T05:58:27.216Z,100137.72
2022-11-23T05:59:30.879Z,100142.72
2022-11-23T06:00:33.271Z,100148.19
2022-11-23T06:01:36.791Z,100146.38
2022-11-23T06:02:41.231Z,100139.84
2022-11-23T06:03:46.867Z,100139.06
2022-11-23T06:04:49.453Z,100136.44
2022-11-23T06:05:52.805Z,100129.34
2022-11-23T06:06:55.337Z,100119.66
2022-11-23T06:07:58.686Z,100115.50
2022-11-23T06:09:01.078Z,100108.69
2022-11-23T06:10:05.984Z,100112.09
2022-11-23T06:11:08.509Z,100111.03
2022-11-23T06:12:12.055Z,100111.31
2022-11-23T06:13:14.354Z,100109.19
2022-11-23T06:14:18.297Z,100119.44
2022-11-23T06:15:20.688Z,100126.78
2022-11-23T06:16:24.478Z,100129.63
2022-11-23T06:17:27.789Z,100135.41
2022-11-23T06:18:30.286Z,100133.31
2022-11-23T06:19:35.325Z,100125.97
2022-11-23T06:20:37.816Z,100134.66
2022-11-23T06:21:43.970Z,100129.66
2022-11-23T06:22:52.438Z,100127.06
2022-11-23T06:23:55.953Z,100131.50
2022-11-23T06:24:58.197Z,100120.22
2022-11-23T06:26:02.014Z,100107.13
2022-11-23T06:27:04.863Z,100112.38
2022-11-23T06:28:08.715Z,100107.41
2022-11-23T06:29:11.329Z,100107.94
2022-11-23T06:30:16.368Z,100111.59
2022-11-23T06:31:18.591Z,100107.94
2022-11-23T06:32:21.968Z,100103.22
2022-11-23T06:33:24.271Z,100103.47
2022-11-23T06:34:27.912Z,100099.81
2022-11-23T06:35:31.608Z,100097.44
2022-11-23T06:36:34.975Z,100093.53
2022-11-23T06:37:37.324Z,100088.81
2022-11-23T06:38:40.698Z,100093.25
2022-11-23T06:39:42.916Z,100085.41
2022-11-23T06:40:46.218Z,100086.94
2022-11-23T06:41:49.411Z,100081.47
2022-11-23T06:42:53.876Z,100079.38
2022-11-23T06:43:57.183Z,100098.78
2022-11-23T06:44:59.467Z,100104.28
2022-11-23T06:46:06.543Z,100098.50
2022-11-23T06:47:12.624Z,100104.00
2022-11-23T06:48:19.136Z,100111.59
2022-11-23T06:49:21.878Z,100106.09
2022-11-23T06:50:25.400Z,100107.41
2022-11-23T06:51:29.094Z,100111.59
2022-11-23T06:52:32.676Z,100103.75
2022-11-23T06:53:36.007Z,100109.25
2022-11-23T06:54:38.347Z,100105.59
2022-11-23T06:55:43.107Z,100110.81
2022-11-23T06:56:46.526Z,100101.66
2022-11-23T06:57:48.834Z,100107.69
2022-11-23T06:58:52.262Z,100105.06
2022-11-23T06:59:54.621Z,100109.78
2022-11-23T07:01:02.242Z,100113.72
2022-11-23T07:02:04.587Z,100110.84
2022-11-23T07:03:07.958Z,100115.28
2022-11-23T07:04:10.105Z,100121.59
2022-11-23T07:05:13.471Z,100126.03
2022-11-23T07:06:15.668Z,100128.66
2022-11-23T07:07:20.598Z,100123.16
2022-11-23T07:08:23.224Z,100135.22
2022-11-23T07:09:26.469Z,100133.91
2022-11-23T07:10:29.709Z,100118.72
2022-11-23T07:11:32.948Z,100126.06
2022-11-23T07:12:36.168Z,100120.56
2022-11-23T07:13:39.934Z,100114.03
2022-11-23T07:14:43.163Z,100090.16
2022-11-23T07:15:45.398Z,100107.97
2022-11-23T07:16:48.611Z,100104.84
2022-11-23T07:17:50.874Z,100090.94
2022-11-23T07:18:54.572Z,100093.03
2022-11-23T07:19:56.749Z,100080.44
2022-11-23T07:21:00.818Z,100085.44
2022-11-23T07:22:04.357Z,100072.03
2022-11-23T07:23:11.771Z,100072.28
2022-11-23T07:24:14.092Z,100071.00
2022-11-23T07:25:19.245Z,100071.25
2022-11-23T07:26:21.549Z,100082.00
2022-11-23T07:27:24.829Z,100077.53
2022-11-23T07:28:27.008Z,100087.78
2022-11-23T07:29:30.546Z,100094.56
2022-11-23T07:30:34.617Z,100103.75
2022-11-23T07:31:37.984Z,100117.13
2022-11-23T07:32:41.160Z,100117.38
2022-11-23T07:33:45.840Z,100121.81
2022-11-23T07:34:48.184Z,100119.50
2022-11-23T07:35:51.471Z,100127.06
2022-11-23T07:36:56.784Z,100128.13
2022-11-23T07:38:02.662Z,100136.25
2022-11-23T07:39:08.363Z,100138.59
2022-11-23T07:40:11.120Z,100135.97
2022-11-23T07:41:14.604Z,100139.94
2022-11-23T07:42:32.279Z,100144.63
2022-11-23T07:43:37.139Z,100146.47
2022-11-23T07:44:39.363Z,100151.19
2022-11-23T07:45:42.641Z,100148.06
2022-11-23T07:46:45.057Z,100146.22
2022-11-23T07:47:48.600Z,100153.28
2022-11-23T07:48:51.921Z,100158.53
2022-11-23T07:49:55.227Z,100158.00
2022-11-23T07:50:58.541Z,100155.38
2022-11-23T07:52:00.919Z,100147.75
2022-11-23T07:53:05.319Z,100146.94
2022-11-23T07:54:09.401Z,100147.72
2022-11-23T07:55:12.818Z,100145.84
2022-11-23T07:56:15.263Z,100152.16
2022-11-23T07:57:18.827Z,100152.16
2022-11-23T07:58:21.106Z,100161.88
2022-11-23T07:59:24.653Z,100149.50
2022-11-23T08:00:29.437Z,100140.06
2022-11-23T08:01:31.853Z,100151.38
2022-11-23T08:02:35.144Z,100142.16
2022-11-23T08:03:37.702Z,100140.88
2022-11-23T08:04:40.980Z,100139.53
2022-11-23T08:05:44.224Z,100157.41
2022-11-23T08:06:46.468Z,100157.66
2022-11-23T08:07:49.808Z,100163.19
2022-11-23T08:08:53.193Z,100167.63
2022-11-23T08:09:57.913Z,100165.31
2022-11-23T08:11:01.465Z,100155.84
2022-11-23T08:12:04.841Z,100161.09
2022-11-23T08:13:08.300Z,100161.59
2022-11-23T08:14:11.620Z,100176.31
2022-11-23T08:15:13.848Z,100172.06
2022-11-23T08:16:17.110Z,100180.72
2022-11-23T08:17:19.326Z,100189.66
2022-11-23T08:18:22.622Z,100184.91
2022-11-23T08:19:26.045Z,100175.66
2022-11-23T08:20:30.509Z,100169.34
2022-11-23T08:21:33.825Z,100183.03
2022-11-23T08:22:37.155Z,100186.34
2022-11-23T08:23:40.498Z,100181.34
2022-11-23T08:24:42.966Z,100185.28
2022-11-23T08:25:48.313Z,100183.72
2022-11-23T08:26:51.624Z,100185.06
2022-11-23T08:27:58.542Z,100189.72
2022-11-23T08:29:01.790Z,100185.75
2022-11-23T08:30:04.708Z,100191.56
2022-11-23T08:31:10.193Z,100208.13
2022-11-23T08:32:13.482Z,100212.47
2022-11-23T08:33:17.025Z,100216.31
2022-11-23T08:34:19.505Z,100217.59
2022-11-23T08:35:23.063Z,100211.69
2022-11-23T08:36:26.335Z,100213.91
2022-11-23T08:37:28.667Z,100205.16
2022-11-23T08:38:32.350Z,100220.72
2022-11-23T08:39:35.650Z,100218.44
2022-11-23T08:40:38.493Z,100234.25
2022-11-23T08:41:43.762Z,100240.91
2022-11-23T08:42:48.763Z,100233.56
2022-11-23T08:43:52.362Z,100232.38
2022-11-23T08:44:55.701Z,100232.56
2022-11-23T08:46:04.701Z,100231.06
2022-11-23T08:47:10.088Z,100232.63
2022-11-23T08:48:12.316Z,100226.69
2022-11-23T08:49:15.597Z,100228.94
2022-11-23T08:50:18.355Z,100233.97
2022-11-23T08:51:23.041Z,100234.13
2022-11-23T08:52:26.280Z,100233.09
2022-11-23T08:53:29.832Z,100239.72
2022-11-23T08:54:33.836Z,100235.44
2022-11-23T08:55:37.693Z,100242.56
2022-11-23T08:56:42.427Z,100244.69
2022-11-23T08:57:45.827Z,100246.03
2022-11-23T08:58:49.425Z,100237.13
2022-11-23T08:59:51.826Z,100243.75
2022-11-23T09:00:55.172Z,100240.53
2022-11-23T09:01:58.477Z,100239.22
2022-11-23T09:03:01.080Z,100239.97
2022-11-23T09:04:04.820Z,100250.28
2022-11-23T09:05:09.717Z,100249.53
2022-11-23T09:06:12.492Z,100249.56
2022-11-23T09:07:16.251Z,100259.28
2022-11-23T09:08:19.853Z,100266.56
2022-11-23T09:09:23.189Z,100266.81
2022-11-23T09:10:27.288Z,100267.50
2022-11-23T09:11:30.929Z,100268.72
2022-11-23T09:12:35.050Z,100274.41
2022-11-23T09:13:39.144Z,100266.94
2022-11-23T09:14:41.394Z,100265.25
2022-11-23T09:15:44.621Z,100262.88
2022-11-23T09:16:47.928Z,100270.63
2022-11-23T09:17:51.194Z,100276.88
2022-11-23T09:18:56.448Z,100276.88
2022-11-23T09:20:00.045Z,100267.97
2022-11-23T09:21:03.183Z,100263.22
2022-11-23T09:22:06.448Z,100253.31
2022-11-23T09:23:14.351Z,100245.53
2022-11-23T09:24:18.209Z,100251.06
2022-11-23T09:25:21.915Z,100254.69
2022-11-23T09:26:25.480Z,100266.97
2022-11-23T09:27:29.086Z,100269.75
2022-11-23T09:28:34.550Z,100257.41
2022-11-23T09:29:38.031Z,100261.34
2022-11-23T09:30:41.390Z,100258.97
2022-11-23T09:31:44.686Z,100260.19
2022-11-23T09:32:48.324Z,100262.28
2022-11-23T09:33:54.172Z,100264.34
2022-11-23T09:34:57.518Z,100270.34
2022-11-23T09:36:01.791Z,100271.84
2022-11-23T09:37:05.180Z,100272.03
2022-11-23T09:38:08.871Z,100271.34
2022-11-23T09:39:13.103Z,100271.00
2022-11-23T09:40:18.633Z,100283.66
2022-11-23T09:41:44.913Z,100287.09
2022-11-23T09:43:05.962Z,100293.31
2022-11-23T09:44:23.065Z,100304.94
2022-11-23T09:45:34.803Z,100305.72
2022-11-23T09:46:45.057Z,100313.56
2022-11-23T09:48:09.831Z,100320.69
2022-11-23T09:49:16.415Z,100319.69
2022-11-23T09:50:24.589Z,100320.06
2022-11-23T09:51:28.235Z,100318.53
2022-11-23T09:52:31.619Z,100332.53
2022-11-23T09:53:41.053Z,100331.09
2022-11-23T09:54:47.136Z,100338.16
2022-11-23T09:55:54.016Z,100335.28
2022-11-23T09:57:01.943Z,100335.31
2022-11-23T09:58:06.752Z,100344.13
2022-11-23T09:59:22.730Z,100349.22
2022-11-23T10:00:36.966Z,100351.78
2022-11-23T10:01:40.606Z,100343.94
2022-11-23T10:02:43.099Z,100343.28
2022-11-23T10:03:49.299Z,100344.56
2022-11-23T10:04:54.010Z,100351.50
2022-11-23T10:06:06.592Z,100355.72
2022-11-23T10:07:32.664Z,100350.00
2022-11-23T10:08:48.118Z,100343.75
2022-11-23T10:09:59.097Z,100337.44
2022-11-23T10:11:15.724Z,100338.84
2022-11-23T10:12:39.899Z,100345.91
2022-11-23T10:13:47.096Z,100345.50
2022-11-23T10:15:02.141Z,100338.09
2022-11-23T10:16:29.418Z,100358.47
2022-11-23T10:18:04.263Z,100365.81
2022-11-23T10:19:19.163Z,100368.09
2022-11-23T10:20:39.140Z,100367.41
2022-11-23T10:21:50.821Z,100366.28
2022-11-23T10:23:00.513Z,100362.31
2022-11-23T10:24:13.626Z,100358.41
2022-11-23T10:25:19.725Z,100353.00
2022-11-23T10:26:29.498Z,100337.22
2022-11-23T10:27:32.866Z,100339.38
2022-11-23T10:28:36.351Z,100340.22
2022-11-23T10:29:40.137Z,100339.88
2022-11-23T10:30:46.766Z,100344.69
2022-11-23T10:31:56.658Z,100350.50
2022-11-23T10:33:03.910Z,100358.19
2022-11-23T10:34:12.675Z,100357.47
2022-11-23T10:35:17.800Z,100358.44
2022-11-23T10:36:20.045Z,100346.72
2022-11-23T10:37:23.487Z,100346.06
2022-11-23T10:38:28.584Z,100358.81
2022-11-23T10:39:31.895Z,100360.84
2022-11-23T10:40:37.025Z,100365.81
2022-11-23T10:41:40.253Z,100363.84
2022-11-23T10:42:47.349Z,100374.66
2022-11-23T10:43:57.115Z,100369.53
2022-11-23T10:45:01.853Z,100374.53
2022-11-23T10:46:39.367Z,100377.56
2022-11-23T10:47:50.240Z,100372.06
2022-11-23T10:48:53.336Z,100377.00
2022-11-23T10:49:59.615Z,100374.34
2022-11-23T10:51:17.096Z,100373.19
2022-11-23T10:52:30.156Z,100372.69
2022-11-23T10:53:34.914Z,100373.38
2022-11-23T10:54:41.525Z,100365.81
2022-11-23T10:55:49.485Z,100372.09
2022-11-23T10:56:54.876Z,100365.88
2022-11-23T10:57:59.363Z,100368.16
2022-11-23T10:59:01.804Z,100371.19
2022-11-23T11:00:15.896Z,100372.19
2022-11-23T11:01:24.442Z,100373.84
2022-11-23T11:02:30.895Z,100373.66
2022-11-23T11:03:36.160Z,100373.88
2022-11-23T11:04:38.363Z,100369.25
2022-11-23T11:06:09.026Z,100382.50
2022-11-23T11:07:22.455Z,100385.91
2022-11-23T11:08:30.768Z,100398.94
2022-11-23T11:09:33.350Z,100402.88
2022-11-23T11:10:40.382Z,100409.34
2022-11-23T11:11:50.876Z,100417.28
2022-11-23T11:12:53.055Z,100405.00
2022-11-23T11:14:05.896Z,100409.94
2022-11-23T11:15:18.012Z,100402.72
2022-11-23T11:16:23.380Z,100407.94
2022-11-23T11:17:30.204Z,100402.59
2022-11-23T11:18:35.680Z,100403.28
2022-11-23T11:19:39.631Z,100414.16
2022-11-23T11:20:46.925Z,100416.66
2022-11-23T11:21:50.402Z,100415.91
2022-11-23T11:22:52.827Z,100423.69
2022-11-23T11:24:00.680Z,100427.59
2022-11-23T11:25:05.977Z,100432.16
2022-11-23T11:26:21.540Z,100431.22
2022-11-23T11:27:25.250Z,100426.47
2022-11-23T11:28:35.130Z,100423.88
2022-11-23T11:29:48.014Z,100429.91
2022-11-23T11:31:11.119Z,100442.53
2022-11-23T11:32:19.261Z,100433.47
2022-11-23T11:33:36.123Z,100432.16
2022-11-23T11:34:46.188Z,100433.31
2022-11-23T11:35:52.047Z,100418.94
2022-11-23T11:37:09.148Z,100420.16
2022-11-23T11:38:19.401Z,100419.53
2022-11-23T11:39:29.878Z,100429.44
2022-11-23T11:40:36.797Z,100428.94
2022-11-23T11:41:40.323Z,100430.63
2022-11-23T11:42:48.396Z,100432.34
2022-11-23T11:43:57.524Z,100426.19
2022-11-23T11:45:04.872Z,100421.75
2022-11-23T11:46:29.117Z,100415.69
2022-11-23T11:47:38.111Z,100408.13
2022-11-23T11:48:46.514Z,100403.19
2022-11-23T11:49:51.783Z,100400.47
2022-11-23T11:50:58.692Z,100401.81
2022-11-23T11:52:09.807Z,100407.81
2022-11-23T11:53:16.511Z,100393.09
2022-11-23T11:54:25.858Z,100398.50
2022-11-23T11:55:34.939Z,100404.31
2022-11-23T11:56:40.696Z,100404.44
2022-11-23T11:57:48.805Z,100405.03
2022-11-23T11:58:57.172Z,100404.75
2022-11-23T12:00:04.119Z,100401.47
2022-11-23T12:01:18.143Z,100397.28
2022-11-23T12:02:24.518Z,100386.16
2022-11-23T12:03:41.309Z,100386.13
2022-11-23T12:04:52.161Z,100380.53
2022-11-23T12:06:02.870Z,100386.59
2022-11-23T12:07:13.288Z,100380.09
2022-11-23T12:08:22.831Z,100396.78
2022-11-23T12:09:31.785Z,100398.78
2022-11-23T12:10:43.251Z,100393.81
2022-11-23T12:11:46.878Z,100390.28
2022-11-23T12:12:50.150Z,100384.59
2022-11-23T12:14:01.154Z,100378.75
2022-11-23T12:15:20.330Z,100382.47
2022-11-23T12:16:35.545Z,100387.75
2022-11-23T12:17:51.945Z,100380.16
2022-11-23T12:19:10.447Z,100383.28
2022-11-23T12:20:21.702Z,100373.19
2022-11-23T12:21:42.410Z,100375.53
2022-11-23T12:22:56.492Z,100369.63
2022-11-23T12:24:13.748Z,100370.22
2022-11-23T12:25:33.249Z,100364.91
2022-11-23T12:26:49.205Z,100375.22